Woodstock, Ohio
Current Conditions -  °F | °C
As of 9:33 AM on Thursday 18 Dec 2014 (Local Time) from KMRT Reporting Station
Overcast Overcast  
Wind Chill: 27°   Ceiling: 1700
Heat Index: 27°   Visibility: 10mi
Dew Point: 19°   Wind: 0mph
Humidity: 74%   Direction: NA
Pressure: 30.26"   Gusts: NA
Location:  40.17°N, 83.53°W
Report Text: KMRT 181433Z AUTO 00000KT 10SM OVC017 M03/M07 A3026 RMK AO2 T10301070
Loading
Personal Weather Stations






























Interactive Weather Map New forecast layout! Learn more

10-Day Weather Forecast

Advertisements
Track Severe Weather on mobile